sensor_id;sensor_type;location;lat;lon;timestamp;temperature;humidity
10155;DHT22;5118;48.570;7.916;2023-04-03T00:01:22;6.00;99.90
10155;DHT22;5118;48.570;7.916;2023-04-03T00:03:50;6.00;99.90
10155;DHT22;5118;48.570;7.916;2023-04-03T00:06:18;5.90;99.90
10155;DHT22;5118;48.570;7.916;2023-04-03T00:08:48;5.90;99.90
10155;DHT22;5118;48.570;7.916;2023-04-03T00:11:17;5.90;99.90
10155;DHT22;5118;48.570;7.916;2023-04-03T00:13:46;5.90;99.90
10155;DHT22;5118;48.570;7.916;2023-04-03T00:16:14;5.90;99.90
10155;DHT22;5118;48.570;7.916;2023-04-03T00:18:44;5.90;99.90
10155;DHT22;5118;48.570;7.916;2023-04-03T00:21:13;5.90;99.90
10155;DHT22;5118;48.570;7.916;2023-04-03T00:23:42;5.90;99.90
10155;DHT22;5118;48.570;7.916;2023-04-03T00:26:11;5.90;99.90
10155;DHT22;5118;48.570;7.916;2023-04-03T00:28:40;5.90;99.90
10155;DHT22;5118;48.570;7.916;2023-04-03T00:31:09;5.90;99.90
10155;DHT22;5118;48.570;7.916;2023-04-03T00:33:37;5.90;99.90
10155;DHT22;5118;48.570;7.916;2023-04-03T00:36:09;5.90;99.90
10155;DHT22;5118;48.570;7.916;2023-04-03T00:38:38;5.90;99.90
10155;DHT22;5118;48.570;7.916;2023-04-03T00:41:06;5.90;99.90
10155;DHT22;5118;48.570;7.916;2023-04-03T00:43:35;5.90;99.90
10155;DHT22;5118;48.570;7.916;2023-04-03T00:46:04;5.80;99.90
10155;DHT22;5118;48.570;7.916;2023-04-03T00:48:34;5.80;99.90
10155;DHT22;5118;48.570;7.916;2023-04-03T00:51:04;5.80;99.90
10155;DHT22;5118;48.570;7.916;2023-04-03T00:53:38;5.80;99.90
10155;DHT22;5118;48.570;7.916;2023-04-03T00:56:10;5.80;99.90
10155;DHT22;5118;48.570;7.916;2023-04-03T00:58:44;5.80;99.90
10155;DHT22;5118;48.570;7.916;2023-04-03T01:01:18;5.80;99.90
10155;DHT22;5118;48.570;7.916;2023-04-03T01:03:47;5.80;99.90
10155;DHT22;5118;48.570;7.916;2023-04-03T01:06:21;5.80;99.90
10155;DHT22;5118;48.570;7.916;2023-04-03T01:08:55;5.80;99.90
10155;DHT22;5118;48.570;7.916;2023-04-03T01:11:23;5.80;99.90
10155;DHT22;5118;48.570;7.916;2023-04-03T01:13:52;5.80;99.90
10155;DHT22;5118;48.570;7.916;2023-04-03T01:16:21;5.80;99.90
10155;DHT22;5118;48.570;7.916;2023-04-03T01:18:49;5.80;99.90
10155;DHT22;5118;48.570;7.916;2023-04-03T01:21:45;5.80;99.90
10155;DHT22;5118;48.570;7.916;2023-04-03T01:24:30;5.80;99.90
10155;DHT22;5118;48.570;7.916;2023-04-03T01:27:02;5.70;99.90
10155;DHT22;5118;48.570;7.916;2023-04-03T01:29:31;5.80;99.90
10155;DHT22;5118;48.570;7.916;2023-04-03T01:32:03;5.70;99.90
10155;DHT22;5118;48.570;7.916;2023-04-03T01:34:31;5.80;99.90
10155;DHT22;5118;48.570;7.916;2023-04-03T01:37:00;5.70;99.90
10155;DHT22;5118;48.570;7.916;2023-04-03T01:39:28;5.80;99.90
10155;DHT22;5118;48.570;7.916;2023-04-03T01:41:57;5.80;99.90
10155;DHT22;5118;48.570;7.916;2023-04-03T01:44:30;5.80;99.90
10155;DHT22;5118;48.570;7.916;2023-04-03T01:47:01;5.80;99.90
10155;DHT22;5118;48.570;7.916;2023-04-03T01:49:30;5.80;99.90
10155;DHT22;5118;48.570;7.916;2023-04-03T01:51:58;5.80;99.90
10155;DHT22;5118;48.570;7.916;2023-04-03T01:54:27;5.80;99.90
10155;DHT22;5118;48.570;7.916;2023-04-03T01:56:55;5.80;99.90
10155;DHT22;5118;48.570;7.916;2023-04-03T01:59:24;5.80;99.90
10155;DHT22;5118;48.570;7.916;2023-04-03T02:01:52;5.80;99.90
10155;DHT22;5118;48.570;7.916;2023-04-03T02:04:22;5.70;99.90
10155;DHT22;5118;48.570;7.916;2023-04-03T02:06:51;5.70;99.90
10155;DHT22;5118;48.570;7.916;2023-04-03T02:09:19;5.70;99.90
10155;DHT22;5118;48.570;7.916;2023-04-03T02:11:48;5.70;99.90
10155;DHT22;5118;48.570;7.916;2023-04-03T02:14:16;5.70;99.90
10155;DHT22;5118;48.570;7.916;2023-04-03T02:16:45;5.70;99.90
10155;DHT22;5118;48.570;7.916;2023-04-03T02:19:13;5.70;99.90
10155;DHT22;5118;48.570;7.916;2023-04-03T02:21:43;5.70;99.90
10155;DHT22;5118;48.570;7.916;2023-04-03T02:24:11;5.70;99.90
10155;DHT22;5118;48.570;7.916;2023-04-03T02:26:40;5.70;99.90
10155;DHT22;5118;48.570;7.916;2023-04-03T02:29:08;5.70;99.90
10155;DHT22;5118;48.570;7.916;2023-04-03T02:31:36;5.70;99.90
10155;DHT22;5118;48.570;7.916;2023-04-03T02:34:05;5.70;99.90
10155;DHT22;5118;48.570;7.916;2023-04-03T02:36:35;5.70;99.90
10155;DHT22;5118;48.570;7.916;2023-04-03T02:39:08;5.70;99.90
10155;DHT22;5118;48.570;7.916;2023-04-03T02:41:37;5.70;99.90
10155;DHT22;5118;48.570;7.916;2023-04-03T02:44:11;5.70;99.90
10155;DHT22;5118;48.570;7.916;2023-04-03T02:46:40;5.70;99.90
10155;DHT22;5118;48.570;7.916;2023-04-03T02:49:08;5.70;99.90
10155;DHT22;5118;48.570;7.916;2023-04-03T02:51:36;5.60;99.90
10155;DHT22;5118;48.570;7.916;2023-04-03T02:54:05;5.60;99.90
10155;DHT22;5118;48.570;7.916;2023-04-03T02:56:38;5.60;99.90
10155;DHT22;5118;48.570;7.916;2023-04-03T02:59:06;5.60;99.90
10155;DHT22;5118;48.570;7.916;2023-04-03T03:01:37;5.60;99.90
10155;DHT22;5118;48.570;7.916;2023-04-03T03:04:05;5.60;99.90
10155;DHT22;5118;48.570;7.916;2023-04-03T03:06:33;5.60;99.90
10155;DHT22;5118;48.570;7.916;2023-04-03T03:09:03;5.60;99.90
10155;DHT22;5118;48.570;7.916;2023-04-03T03:11:31;5.60;99.90
10155;DHT22;5118;48.570;7.916;2023-04-03T03:14:01;5.60;99.90
10155;DHT22;5118;48.570;7.916;2023-04-03T03:16:30;5.60;99.90
10155;DHT22;5118;48.570;7.916;2023-04-03T03:18:58;5.60;99.90
10155;DHT22;5118;48.570;7.916;2023-04-03T03:21:27;5.50;99.90
10155;DHT22;5118;48.570;7.916;2023-04-03T03:23:56;5.60;99.90
10155;DHT22;5118;48.570;7.916;2023-04-03T03:26:24;5.50;99.90
10155;DHT22;5118;48.570;7.916;2023-04-03T03:28:54;5.50;99.90
10155;DHT22;5118;48.570;7.916;2023-04-03T03:31:24;5.40;99.90
10155;DHT22;5118;48.570;7.916;2023-04-03T03:33:52;5.50;99.90
10155;DHT22;5118;48.570;7.916;2023-04-03T03:36:21;5.40;99.90
10155;DHT22;5118;48.570;7.916;2023-04-03T03:38:50;5.40;99.90
10155;DHT22;5118;48.570;7.916;2023-04-03T03:41:18;5.40;99.90
10155;DHT22;5118;48.570;7.916;2023-04-03T03:43:47;5.40;99.90
10155;DHT22;5118;48.570;7.916;2023-04-03T03:46:16;5.40;99.90
10155;DHT22;5118;48.570;7.916;2023-04-03T03:48:46;5.30;99.90
10155;DHT22;5118;48.570;7.916;2023-04-03T03:51:15;5.30;99.90
10155;DHT22;5118;48.570;7.916;2023-04-03T03:53:43;5.30;99.90
10155;DHT22;5118;48.570;7.916;2023-04-03T03:56:14;5.30;99.90
10155;DHT22;5118;48.570;7.916;2023-04-03T03:58:44;5.30;99.90
10155;DHT22;5118;48.570;7.916;2023-04-03T04:01:13;5.20;99.90
10155;DHT22;5118;48.570;7.916;2023-04-03T04:03:47;5.20;99.90
10155;DHT22;5118;48.570;7.916;2023-04-03T04:06:20;5.20;99.90
10155;DHT22;5118;48.570;7.916;2023-04-03T04:08:49;5.20;99.90
10155;DHT22;5118;48.570;7.916;2023-04-03T04:11:18;5.20;99.90
10155;DHT22;5118;48.570;7.916;2023-04-03T04:13:47;5.10;99.90
10155;DHT22;5118;48.570;7.916;2023-04-03T04:16:17;5.10;99.90
10155;DHT22;5118;48.570;7.916;2023-04-03T04:18:47;5.10;99.90
10155;DHT22;5118;48.570;7.916;2023-04-03T04:21:15;5.10;99.90
10155;DHT22;5118;48.570;7.916;2023-04-03T04:23:44;5.10;99.90
10155;DHT22;5118;48.570;7.916;2023-04-03T04:26:14;5.10;99.90
10155;DHT22;5118;48.570;7.916;2023-04-03T04:28:43;5.00;99.90
10155;DHT22;5118;48.570;7.916;2023-04-03T04:31:11;5.00;99.90
10155;DHT22;5118;48.570;7.916;2023-04-03T04:33:40;5.00;99.90
10155;DHT22;5118;48.570;7.916;2023-04-03T04:36:12;5.00;99.90
10155;DHT22;5118;48.570;7.916;2023-04-03T04:38:44;4.90;99.90
10155;DHT22;5118;48.570;7.916;2023-04-03T04:41:13;4.90;99.90
10155;DHT22;5118;48.570;7.916;2023-04-03T04:43:42;4.90;99.90
10155;DHT22;5118;48.570;7.916;2023-04-03T04:46:10;4.90;99.90
10155;DHT22;5118;48.570;7.916;2023-04-03T04:48:45;4.90;99.90
10155;DHT22;5118;48.570;7.916;2023-04-03T04:51:15;4.90;99.90
10155;DHT22;5118;48.570;7.916;2023-04-03T04:53:44;4.90;99.90
10155;DHT22;5118;48.570;7.916;2023-04-03T04:56:14;4.80;99.90
10155;DHT22;5118;48.570;7.916;2023-04-03T04:58:43;4.80;99.90
10155;DHT22;5118;48.570;7.916;2023-04-03T05:01:12;4.90;99.90
10155;DHT22;5118;48.570;7.916;2023-04-03T05:03:51;4.80;99.90
10155;DHT22;5118;48.570;7.916;2023-04-03T05:06:23;4.80;99.90
10155;DHT22;5118;48.570;7.916;2023-04-03T05:08:53;4.80;99.90
10155;DHT22;5118;48.570;7.916;2023-04-03T05:11:22;4.80;99.90
10155;DHT22;5118;48.570;7.916;2023-04-03T05:13:51;4.80;99.90
10155;DHT22;5118;48.570;7.916;2023-04-03T05:16:22;4.80;99.90
10155;DHT22;5118;48.570;7.916;2023-04-03T05:18:50;4.80;99.90
10155;DHT22;5118;48.570;7.916;2023-04-03T05:21:23;4.70;99.90
10155;DHT22;5118;48.570;7.916;2023-04-03T05:23:53;4.70;99.90
10155;DHT22;5118;48.570;7.916;2023-04-03T05:26:21;4.70;99.90
10155;DHT22;5118;48.570;7.916;2023-04-03T05:28:50;4.70;99.90
10155;DHT22;5118;48.570;7.916;2023-04-03T05:31:20;4.70;99.90
10155;DHT22;5118;48.570;7.916;2023-04-03T05:33:49;4.70;99.90
10155;DHT22;5118;48.570;7.916;2023-04-03T05:36:18;4.70;99.90
10155;DHT22;5118;48.570;7.916;2023-04-03T05:38:52;4.80;99.90
10155;DHT22;5118;48.570;7.916;2023-04-03T05:41:23;4.80;99.90
10155;DHT22;5118;48.570;7.916;2023-04-03T05:43:51;4.80;99.90
10155;DHT22;5118;48.570;7.916;2023-04-03T05:46:22;4.80;99.90
10155;DHT22;5118;48.570;7.916;2023-04-03T05:48:54;4.80;99.90
10155;DHT22;5118;48.570;7.916;2023-04-03T05:51:29;4.80;99.90
10155;DHT22;5118;48.570;7.916;2023-04-03T05:54:08;4.90;99.90
10155;DHT22;5118;48.570;7.916;2023-04-03T05:56:38;4.90;99.90
10155;DHT22;5118;48.570;7.916;2023-04-03T05:59:07;5.00;99.90
10155;DHT22;5118;48.570;7.916;2023-04-03T06:01:35;5.00;99.90
10155;DHT22;5118;48.570;7.916;2023-04-03T06:04:04;5.00;99.90
10155;DHT22;5118;48.570;7.916;2023-04-03T06:06:46;5.10;99.90
10155;DHT22;5118;48.570;7.916;2023-04-03T06:09:17;5.10;99.90
10155;DHT22;5118;48.570;7.916;2023-04-03T06:11:46;5.20;99.90
10155;DHT22;5118;48.570;7.916;2023-04-03T06:14:15;5.30;99.90
10155;DHT22;5118;48.570;7.916;2023-04-03T06:16:44;5.40;99.90
10155;DHT22;5118;48.570;7.916;2023-04-03T06:19:12;5.40;99.90
10155;DHT22;5118;48.570;7.916;2023-04-03T06:21:46;5.50;99.90
10155;DHT22;5118;48.570;7.916;2023-04-03T06:24:16;5.60;99.90
10155;DHT22;5118;48.570;7.916;2023-04-03T06:26:45;5.70;99.90
10155;DHT22;5118;48.570;7.916;2023-04-03T06:29:13;5.80;99.90
10155;DHT22;5118;48.570;7.916;2023-04-03T06:31:42;5.90;99.90
10155;DHT22;5118;48.570;7.916;2023-04-03T06:34:11;6.00;99.90
10155;DHT22;5118;48.570;7.916;2023-04-03T06:36:40;6.00;99.90
10155;DHT22;5118;48.570;7.916;2023-04-03T06:39:09;6.20;99.90
10155;DHT22;5118;48.570;7.916;2023-04-03T06:41:42;6.30;99.90
10155;DHT22;5118;48.570;7.916;2023-04-03T06:44:10;6.40;99.90
10155;DHT22;5118;48.570;7.916;2023-04-03T06:46:40;6.40;99.90
10155;DHT22;5118;48.570;7.916;2023-04-03T06:49:09;6.50;99.90
10155;DHT22;5118;48.570;7.916;2023-04-03T06:51:37;6.60;99.90
10155;DHT22;5118;48.570;7.916;2023-04-03T06:54:06;6.60;99.90
10155;DHT22;5118;48.570;7.916;2023-04-03T06:56:35;6.80;99.90
10155;DHT22;5118;48.570;7.916;2023-04-03T06:59:05;6.80;99.90
10155;DHT22;5118;48.570;7.916;2023-04-03T07:01:34;6.90;99.90
10155;DHT22;5118;48.570;7.916;2023-04-03T07:04:02;6.90;99.90
10155;DHT22;5118;48.570;7.916;2023-04-03T07:06:31;6.90;99.90
10155;DHT22;5118;48.570;7.916;2023-04-03T07:09:00;6.90;99.90
10155;DHT22;5118;48.570;7.916;2023-04-03T07:11:29;6.80;99.90
10155;DHT22;5118;48.570;7.916;2023-04-03T07:13:58;6.80;99.90
10155;DHT22;5118;48.570;7.916;2023-04-03T07:16:28;6.70;99.90
10155;DHT22;5118;48.570;7.916;2023-04-03T07:18:58;6.60;99.90
10155;DHT22;5118;48.570;7.916;2023-04-03T07:21:26;6.60;99.90
10155;DHT22;5118;48.570;7.916;2023-04-03T07:23:55;6.60;99.90
10155;DHT22;5118;48.570;7.916;2023-04-03T07:26:23;6.50;99.90
10155;DHT22;5118;48.570;7.916;2023-04-03T07:28:52;6.50;99.90
10155;DHT22;5118;48.570;7.916;2023-04-03T07:31:21;6.50;99.90
10155;DHT22;5118;48.570;7.916;2023-04-03T07:33:51;6.50;99.90
10155;DHT22;5118;48.570;7.916;2023-04-03T07:36:21;6.50;99.90
10155;DHT22;5118;48.570;7.916;2023-04-03T07:38:50;6.60;99.90
10155;DHT22;5118;48.570;7.916;2023-04-03T07:41:19;6.60;99.90
10155;DHT22;5118;48.570;7.916;2023-04-03T07:43:49;6.60;99.90
10155;DHT22;5118;48.570;7.916;2023-04-03T07:46:17;6.60;99.90
10155;DHT22;5118;48.570;7.916;2023-04-03T07:48:46;6.60;99.90
10155;DHT22;5118;48.570;7.916;2023-04-03T07:51:16;6.70;99.90
10155;DHT22;5118;48.570;7.916;2023-04-03T07:53:44;6.70;99.90
10155;DHT22;5118;48.570;7.916;2023-04-03T07:56:13;6.80;99.90
10155;DHT22;5118;48.570;7.916;2023-04-03T07:58:41;6.70;99.90
10155;DHT22;5118;48.570;7.916;2023-04-03T08:01:09;6.70;99.90
10155;DHT22;5118;48.570;7.916;2023-04-03T08:03:38;6.80;99.90
10155;DHT22;5118;48.570;7.916;2023-04-03T08:06:07;6.80;99.90
10155;DHT22;5118;48.570;7.916;2023-04-03T08:08:43;6.70;99.90
10155;DHT22;5118;48.570;7.916;2023-04-03T08:11:12;6.70;99.90
10155;DHT22;5118;48.570;7.916;2023-04-03T08:13:41;6.70;99.90
10155;DHT22;5118;48.570;7.916;2023-04-03T08:16:11;6.60;99.90
10155;DHT22;5118;48.570;7.916;2023-04-03T08:18:41;6.60;99.90
10155;DHT22;5118;48.570;7.916;2023-04-03T08:21:10;6.50;99.90
10155;DHT22;5118;48.570;7.916;2023-04-03T08:23:40;6.60;99.90
10155;DHT22;5118;48.570;7.916;2023-04-03T08:26:12;6.70;99.90
10155;DHT22;5118;48.570;7.916;2023-04-03T08:28:41;6.80;99.90
10155;DHT22;5118;48.570;7.916;2023-04-03T08:31:11;7.00;99.90
10155;DHT22;5118;48.570;7.916;2023-04-03T08:33:40;7.30;99.90
10155;DHT22;5118;48.570;7.916;2023-04-03T08:36:17;7.60;99.90
10155;DHT22;5118;48.570;7.916;2023-04-03T08:38:47;7.90;99.90
10155;DHT22;5118;48.570;7.916;2023-04-03T08:41:22;8.10;99.90
10155;DHT22;5118;48.570;7.916;2023-04-03T08:44:17;8.40;99.90
10155;DHT22;5118;48.570;7.916;2023-04-03T08:46:58;8.70;99.90
10155;DHT22;5118;48.570;7.916;2023-04-03T08:49:31;8.80;99.90
10155;DHT22;5118;48.570;7.916;2023-04-03T08:52:04;8.90;99.90
10155;DHT22;5118;48.570;7.916;2023-04-03T08:54:35;9.00;99.90
10155;DHT22;5118;48.570;7.916;2023-04-03T08:57:07;9.10;99.90
10155;DHT22;5118;48.570;7.916;2023-04-03T08:59:37;9.20;99.90
10155;DHT22;5118;48.570;7.916;2023-04-03T09:02:22;9.40;99.90
10155;DHT22;5118;48.570;7.916;2023-04-03T09:04:51;9.60;99.90
10155;DHT22;5118;48.570;7.916;2023-04-03T09:07:25;9.80;99.90
10155;DHT22;5118;48.570;7.916;2023-04-03T09:09:54;9.90;99.90
10155;DHT22;5118;48.570;7.916;2023-04-03T09:12:26;10.10;99.90
10155;DHT22;5118;48.570;7.916;2023-04-03T09:15:01;10.10;99.90
10155;DHT22;5118;48.570;7.916;2023-04-03T09:17:37;10.10;99.90
10155;DHT22;5118;48.570;7.916;2023-04-03T09:20:17;10.10;99.90
10155;DHT22;5118;48.570;7.916;2023-04-03T09:22:47;10.10;99.90
10155;DHT22;5118;48.570;7.916;2023-04-03T09:25:21;10.20;99.90
10155;DHT22;5118;48.570;7.916;2023-04-03T09:27:52;10.30;99.90
10155;DHT22;5118;48.570;7.916;2023-04-03T09:30:21;10.40;99.90
10155;DHT22;5118;48.570;7.916;2023-04-03T09:32:51;10.60;99.90
10155;DHT22;5118;48.570;7.916;2023-04-03T09:35:23;10.70;99.90
10155;DHT22;5118;48.570;7.916;2023-04-03T09:38:17;10.90;99.90
10155;DHT22;5118;48.570;7.916;2023-04-03T09:40:46;11.00;99.90
10155;DHT22;5118;48.570;7.916;2023-04-03T09:43:23;11.20;99.90
10155;DHT22;5118;48.570;7.916;2023-04-03T09:45:53;11.30;99.90
10155;DHT22;5118;48.570;7.916;2023-04-03T09:48:23;11.40;99.90
10155;DHT22;5118;48.570;7.916;2023-04-03T09:50:58;11.60;99.90
10155;DHT22;5118;48.570;7.916;2023-04-03T09:53:35;11.80;99.90
10155;DHT22;5118;48.570;7.916;2023-04-03T09:58:45;12.10;99.90
10155;DHT22;5118;48.570;7.916;2023-04-03T10:01:27;12.20;99.90
10155;DHT22;5118;48.570;7.916;2023-04-03T10:04:08;12.30;99.90
10155;DHT22;5118;48.570;7.916;2023-04-03T10:06:39;12.30;99.90
10155;DHT22;5118;48.570;7.916;2023-04-03T10:09:21;12.40;99.90
10155;DHT22;5118;48.570;7.916;2023-04-03T10:12:04;12.40;99.90
10155;DHT22;5118;48.570;7.916;2023-04-03T10:14:36;12.40;99.70
10155;DHT22;5118;48.570;7.916;2023-04-03T10:17:15;12.40;99.80
10155;DHT22;5118;48.570;7.916;2023-04-03T10:19:48;12.40;99.00
10155;DHT22;5118;48.570;7.916;2023-04-03T10:22:23;12.40;98.80
10155;DHT22;5118;48.570;7.916;2023-04-03T10:25:03;12.40;98.60
10155;DHT22;5118;48.570;7.916;2023-04-03T10:27:39;12.50;96.30
10155;DHT22;5118;48.570;7.916;2023-04-03T10:30:21;12.40;97.70
10155;DHT22;5118;48.570;7.916;2023-04-03T10:33:05;12.50;97.80
10155;DHT22;5118;48.570;7.916;2023-04-03T10:35:44;12.50;97.40
10155;DHT22;5118;48.570;7.916;2023-04-03T10:38:18;12.60;97.40
10155;DHT22;5118;48.570;7.916;2023-04-03T10:40:55;12.60;96.50
10155;DHT22;5118;48.570;7.916;2023-04-03T10:43:31;12.70;96.80
10155;DHT22;5118;48.570;7.916;2023-04-03T10:46:06;12.70;95.60
10155;DHT22;5118;48.570;7.916;2023-04-03T10:48:53;12.70;96.10
10155;DHT22;5118;48.570;7.916;2023-04-03T10:51:29;12.80;96.10
10155;DHT22;5118;48.570;7.916;2023-04-03T10:54:05;12.90;95.00
10155;DHT22;5118;48.570;7.916;2023-04-03T10:56:39;13.00;95.60
10155;DHT22;5118;48.570;7.916;2023-04-03T10:59:18;13.10;94.80
10155;DHT22;5118;48.570;7.916;2023-04-03T11:01:53;13.10;93.60
10155;DHT22;5118;48.570;7.916;2023-04-03T11:04:27;13.00;93.90
10155;DHT22;5118;48.570;7.916;2023-04-03T11:07:01;12.90;94.00
10155;DHT22;5118;48.570;7.916;2023-04-03T11:09:33;12.90;93.70
10155;DHT22;5118;48.570;7.916;2023-04-03T11:12:06;12.90;93.80
10155;DHT22;5118;48.570;7.916;2023-04-03T11:14:38;12.80;93.70
10155;DHT22;5118;48.570;7.916;2023-04-03T11:17:24;12.80;93.50
10155;DHT22;5118;48.570;7.916;2023-04-03T11:20:01;12.80;92.40
10155;DHT22;5118;48.570;7.916;2023-04-03T11:22:36;12.80;93.30
10155;DHT22;5118;48.570;7.916;2023-04-03T11:25:19;12.80;92.70
10155;DHT22;5118;48.570;7.916;2023-04-03T11:27:54;12.90;92.20
10155;DHT22;5118;48.570;7.916;2023-04-03T11:30:27;12.90;92.60
10155;DHT22;5118;48.570;7.916;2023-04-03T11:33:18;12.80;92.30
10155;DHT22;5118;48.570;7.916;2023-04-03T11:35:52;12.90;91.70
10155;DHT22;5118;48.570;7.916;2023-04-03T11:38:23;13.00;92.60
10155;DHT22;5118;48.570;7.916;2023-04-03T11:40:54;13.10;92.50
10155;DHT22;5118;48.570;7.916;2023-04-03T11:43:25;13.10;92.10
10155;DHT22;5118;48.570;7.916;2023-04-03T11:45:56;13.10;91.80
10155;DHT22;5118;48.570;7.916;2023-04-03T11:48:47;13.00;91.70
10155;DHT22;5118;48.570;7.916;2023-04-03T11:51:52;12.90;90.50
10155;DHT22;5118;48.570;7.916;2023-04-03T11:54:46;12.90;90.80
10155;DHT22;5118;48.570;7.916;2023-04-03T11:57:44;13.00;90.80
10155;DHT22;5118;48.570;7.916;2023-04-03T12:00:54;13.00;90.20
10155;DHT22;5118;48.570;7.916;2023-04-03T12:03:31;13.20;90.80
10155;DHT22;5118;48.570;7.916;2023-04-03T12:09:23;13.60;89.30
10155;DHT22;5118;48.570;7.916;2023-04-03T12:11:52;13.70;86.80
10155;DHT22;5118;48.570;7.916;2023-04-03T12:14:22;13.70;90.20
10155;DHT22;5118;48.570;7.916;2023-04-03T12:16:53;13.60;90.30
10155;DHT22;5118;48.570;7.916;2023-04-03T12:19:34;13.50;90.00
10155;DHT22;5118;48.570;7.916;2023-04-03T12:22:14;13.50;86.60
10155;DHT22;5118;48.570;7.916;2023-04-03T12:24:45;14.10;90.80
10155;DHT22;5118;48.570;7.916;2023-04-03T12:27:34;14.70;89.40
10155;DHT22;5118;48.570;7.916;2023-04-03T12:30:21;15.00;88.20
10155;DHT22;5118;48.570;7.916;2023-04-03T12:33:05;15.00;84.70
10155;DHT22;5118;48.570;7.916;2023-04-03T12:35:44;14.70;85.70
10155;DHT22;5118;48.570;7.916;2023-04-03T12:38:40;14.40;85.60
10155;DHT22;5118;48.570;7.916;2023-04-03T12:41:21;14.20;82.60
10155;DHT22;5118;48.570;7.916;2023-04-03T12:44:08;13.90;83.70
10155;DHT22;5118;48.570;7.916;2023-04-03T12:46:44;13.80;83.30
10155;DHT22;5118;48.570;7.916;2023-04-03T12:49:22;13.70;83.40
10155;DHT22;5118;48.570;7.916;2023-04-03T12:51:52;13.80;81.80
10155;DHT22;5118;48.570;7.916;2023-04-03T12:54:26;13.70;82.80
10155;DHT22;5118;48.570;7.916;2023-04-03T12:57:11;13.70;82.30
10155;DHT22;5118;48.570;7.916;2023-04-03T12:59:39;13.60;80.90
10155;DHT22;5118;48.570;7.916;2023-04-03T13:02:20;13.50;82.80
10155;DHT22;5118;48.570;7.916;2023-04-03T13:04:50;13.40;80.90
10155;DHT22;5118;48.570;7.916;2023-04-03T13:07:24;13.30;81.70
10155;DHT22;5118;48.570;7.916;2023-04-03T13:10:00;13.20;81.00
10155;DHT22;5118;48.570;7.916;2023-04-03T13:12:30;13.10;82.20
10155;DHT22;5118;48.570;7.916;2023-04-03T13:15:02;13.00;82.70
10155;DHT22;5118;48.570;7.916;2023-04-03T13:17:40;13.10;83.70
10155;DHT22;5118;48.570;7.916;2023-04-03T13:20:16;13.20;84.50
10155;DHT22;5118;48.570;7.916;2023-04-03T13:22:49;13.30;83.00
10155;DHT22;5118;48.570;7.916;2023-04-03T13:25:21;13.40;81.40
10155;DHT22;5118;48.570;7.916;2023-04-03T13:27:52;13.50;81.20
10155;DHT22;5118;48.570;7.916;2023-04-03T13:30:39;13.60;81.10
10155;DHT22;5118;48.570;7.916;2023-04-03T13:33:21;13.70;82.10
10155;DHT22;5118;48.570;7.916;2023-04-03T13:35:55;14.30;83.20
10155;DHT22;5118;48.570;7.916;2023-04-03T13:38:27;14.80;81.60
10155;DHT22;5118;48.570;7.916;2023-04-03T13:40:59;15.00;80.70
10155;DHT22;5118;48.570;7.916;2023-04-03T13:43:33;15.00;80.30
10155;DHT22;5118;48.570;7.916;2023-04-03T13:46:20;15.00;79.90
10155;DHT22;5118;48.570;7.916;2023-04-03T13:48:52;14.90;77.40
10155;DHT22;5118;48.570;7.916;2023-04-03T13:51:23;14.60;77.90
10155;DHT22;5118;48.570;7.916;2023-04-03T13:53:55;14.20;77.70
10155;DHT22;5118;48.570;7.916;2023-04-03T13:56:31;14.00;78.80
10155;DHT22;5118;48.570;7.916;2023-04-03T13:59:19;13.80;76.90
10155;DHT22;5118;48.570;7.916;2023-04-03T14:01:52;13.60;78.40
10155;DHT22;5118;48.570;7.916;2023-04-03T14:04:24;13.40;78.40
10155;DHT22;5118;48.570;7.916;2023-04-03T14:06:53;13.20;78.90
10155;DHT22;5118;48.570;7.916;2023-04-03T14:09:23;13.00;78.50
10155;DHT22;5118;48.570;7.916;2023-04-03T14:11:55;12.90;78.70
10155;DHT22;5118;48.570;7.916;2023-04-03T14:14:30;12.80;78.90
10155;DHT22;5118;48.570;7.916;2023-04-03T14:17:00;12.80;78.70
10155;DHT22;5118;48.570;7.916;2023-04-03T14:19:31;12.80;78.90
10155;DHT22;5118;48.570;7.916;2023-04-03T14:22:05;12.90;77.50
10155;DHT22;5118;48.570;7.916;2023-04-03T14:24:35;13.10;77.30
10155;DHT22;5118;48.570;7.916;2023-04-03T14:27:05;13.30;77.50
10155;DHT22;5118;48.570;7.916;2023-04-03T14:29:41;13.50;77.50
10155;DHT22;5118;48.570;7.916;2023-04-03T14:32:11;13.50;76.50
10155;DHT22;5118;48.570;7.916;2023-04-03T14:34:42;13.30;75.90
10155;DHT22;5118;48.570;7.916;2023-04-03T14:37:12;13.00;76.00
10155;DHT22;5118;48.570;7.916;2023-04-03T14:39:41;12.70;75.80
10155;DHT22;5118;48.570;7.916;2023-04-03T14:42:13;12.50;76.30
10155;DHT22;5118;48.570;7.916;2023-04-03T14:44:43;12.30;76.90
10155;DHT22;5118;48.570;7.916;2023-04-03T14:47:12;12.20;76.70
10155;DHT22;5118;48.570;7.916;2023-04-03T14:49:56;12.00;76.90
10155;DHT22;5118;48.570;7.916;2023-04-03T14:52:26;11.90;76.90
10155;DHT22;5118;48.570;7.916;2023-04-03T14:54:56;11.70;76.60
10155;DHT22;5118;48.570;7.916;2023-04-03T14:57:26;11.50;77.00
10155;DHT22;5118;48.570;7.916;2023-04-03T14:59:56;11.40;77.80
10155;DHT22;5118;48.570;7.916;2023-04-03T15:02:28;11.20;78.50
10155;DHT22;5118;48.570;7.916;2023-04-03T15:04:58;11.20;79.40
10155;DHT22;5118;48.570;7.916;2023-04-03T15:07:29;11.20;80.40
10155;DHT22;5118;48.570;7.916;2023-04-03T15:10:15;11.20;81.00
10155;DHT22;5118;48.570;7.916;2023-04-03T15:12:44;11.20;80.40
10155;DHT22;5118;48.570;7.916;2023-04-03T15:15:16;11.40;80.40
10155;DHT22;5118;48.570;7.916;2023-04-03T15:17:44;11.50;79.40
10155;DHT22;5118;48.570;7.916;2023-04-03T15:20:15;11.50;79.50
10155;DHT22;5118;48.570;7.916;2023-04-03T15:22:44;11.60;78.30
10155;DHT22;5118;48.570;7.916;2023-04-03T15:25:13;11.60;78.40
10155;DHT22;5118;48.570;7.916;2023-04-03T15:27:42;11.70;78.10
10155;DHT22;5118;48.570;7.916;2023-04-03T15:30:17;11.70;77.70
10155;DHT22;5118;48.570;7.916;2023-04-03T15:32:46;11.80;77.90
10155;DHT22;5118;48.570;7.916;2023-04-03T15:35:14;11.70;76.90
10155;DHT22;5118;48.570;7.916;2023-04-03T15:37:43;11.60;76.30
10155;DHT22;5118;48.570;7.916;2023-04-03T15:40:12;11.50;75.70
10155;DHT22;5118;48.570;7.916;2023-04-03T15:42:40;11.60;76.20
10155;DHT22;5118;48.570;7.916;2023-04-03T15:45:09;11.90;78.40
10155;DHT22;5118;48.570;7.916;2023-04-03T15:47:39;13.10;81.50
10155;DHT22;5118;48.570;7.916;2023-04-03T15:50:08;14.90;81.90
10155;DHT22;5118;48.570;7.916;2023-04-03T15:52:36;16.70;79.60
10155;DHT22;5118;48.570;7.916;2023-04-03T15:55:05;18.20;75.90
10155;DHT22;5118;48.570;7.916;2023-04-03T15:57:34;18.70;73.00
10155;DHT22;5118;48.570;7.916;2023-04-03T16:00:08;18.70;71.50
10155;DHT22;5118;48.570;7.916;2023-04-03T16:02:36;18.50;68.10
10155;DHT22;5118;48.570;7.916;2023-04-03T16:05:08;18.00;67.40
10155;DHT22;5118;48.570;7.916;2023-04-03T16:07:37;17.30;66.80
10155;DHT22;5118;48.570;7.916;2023-04-03T16:10:09;16.50;65.30
10155;DHT22;5118;48.570;7.916;2023-04-03T16:12:38;15.70;64.80
10155;DHT22;5118;48.570;7.916;2023-04-03T16:15:07;15.00;65.00
10155;DHT22;5118;48.570;7.916;2023-04-03T16:17:37;14.40;65.10
10155;DHT22;5118;48.570;7.916;2023-04-03T16:20:11;13.70;64.10
10155;DHT22;5118;48.570;7.916;2023-04-03T16:22:41;13.10;64.80
10155;DHT22;5118;48.570;7.916;2023-04-03T16:25:10;12.60;65.40
10155;DHT22;5118;48.570;7.916;2023-04-03T16:27:39;12.60;67.20
10155;DHT22;5118;48.570;7.916;2023-04-03T16:30:08;13.60;69.80
10155;DHT22;5118;48.570;7.916;2023-04-03T16:32:38;14.90;69.30